Terminal Aerodrome Forecast
Issued by NWS Rapid City, SD

Home | Current Version | Previous Version | Graphics & Text | Print | Product List | Glossary On
Versions: 1 2 3 4 5 6 7 8 9 10 11 12 13 14 15 16 17
000
FTUS43 KUNR 231439 AAA
TAFRAP
TAF AMD
KRAP 231439Z 2315/2412 VRB05KT P6SM BKN007 OVC016
     FM231700 18013KT P6SM SCT150
     FM240100 24020G35KT 3SM TSRA BKN050CB
     FM240300 18015KT P6SM BKN040=

USA.gov is the U.S. government's official web portal to all federal, state and local government web resources and services.